Station APAM2 - 8575512 - Annapolis, MD Image indicating link to RSS feed of recent meteorological observations for station APAM2


Conditions at APAM2 as of
(1:30 pm EDT)
1730 GMT on 09/01/2026:
     

Click on the graph icon in the table below to see a time series plot of the last five days of that observation.

5-day plot - Wind Direction Wind Direction (WDIR): W ( 280 deg true )
5-day plot - Wind Speed Wind Speed (WSPD): 4.1 kts
5-day plot - Wind Gust Wind Gust (GST): 6.0 kts
5-day plot - Atmospheric Pressure Atmospheric Pressure (PRES):29.96 in
5-day plot - Air Temperature Air Temperature (ATMP): 93.0 °F
5-day plot - Water Temperature Water Temperature (WTMP): 83.3 °F
5-day plot -  Wind Speed, Wind Gust and Atmospheric Pressure Combined plot of Wind Speed, Gust, and Air Pressure
NOS Water Level Observation Network Water Level
Previous observations
TIME
(EDT)
5-day plot - Wind Direction
WDIR
 
5-day plot - Wind Speed
WSPD
kts
5-day plot - Wind Gust
GST
kts
5-day plot - Wave Height
WVHT
ft
5-day plot - Dominant Wave Period
DPD
sec
5-day plot - Average Wave Period
APD
sec
5-day plot - Mean Wave Direction
MWD
 
5-day plot - Atmospheric Pressure
PRES
in
5-day plot - Pressure Tendency
PTDY
in
5-day plot - Air Temperature
ATMP
°F
5-day plot - Water Temperature
WTMP
°F
5-day plot - Dew Point
DEWP
°F
5-day plot - Salinity
SAL
psu
5-day plot - Visibility
VIS
nmi
5-day plot - Tide (above MLLW)
TIDE
ft
2026-09-01 01:24 pm SW 1.0 5.1----29.96- 93.6 83.1----
2026-09-01 01:18 pmWNW 4.1 7.0----29.96-- 83.1----
2026-09-01 01:12 pmWNW 6.0 11.1----29.97-- 83.1----
2026-09-01 01:06 pm W 8.0 12.0----29.97-- 83.1----
2026-09-01 01:00 pm W 5.1 9.9----29.97-0.03 93.6 82.9----
2026-09-01 12:54 pmWNW 7.0 8.9----29.97- 92.8 83.1----
2026-09-01 12:48 pm W 2.9 8.0----29.97-- 83.1----
2026-09-01 12:42 pmWSW 4.1 7.0----29.97-- 83.1----
2026-09-01 12:36 pm SW 4.1 8.9----29.98-- 82.9----
2026-09-01 12:30 pmWNW 6.0 13.0----29.98- 92.1 82.9----
2026-09-01 12:24 pm W 5.1 11.1----29.98- 93.0 82.9----
2026-09-01 12:18 pm W 6.0 9.9----29.98-- 82.9----
2026-09-01 12:12 pm W 5.1 8.0----29.98-- 82.8----
2026-09-01 12:06 pm NW 5.1 8.0----29.98-- 82.9----
2026-09-01 12:00 pmWNW 4.1 15.0----29.98-0.03 91.2 82.8----
2026-09-01 11:54 amWNW 7.0 11.1----29.99- 91.6 82.9----
2026-09-01 11:48 amWNW 8.9 12.0----29.99- 90.9 82.8----
2026-09-01 11:42 am W 5.1 9.9----29.99- 91.9 82.8----
2026-09-01 11:36 amWNW 6.0 8.9----29.99- 90.5 82.8----
2026-09-01 11:30 amWNW 9.9 15.0----30.00- 91.0 82.6----
2026-09-01 11:24 amWNW 9.9 15.0----30.00- 90.7 82.6----
2026-09-01 11:18 amWNW 5.1 5.1----30.00-- 82.6----
2026-09-01 11:12 am W 5.1 8.9----30.00-- 82.6----
2026-09-01 11:06 amWSW 2.9 7.0----30.00-- 82.6----
2026-09-01 11:00 am W 2.9 6.0----30.00-0.01 90.5 82.4----
2026-09-01 10:54 am W 5.1 9.9----30.00- 90.1 82.2----
2026-09-01 10:48 am W 4.1 6.0----30.01-- 82.2----
2026-09-01 10:42 amWSW 1.9 7.0----30.01-- 82.2----
2026-09-01 10:36 am W 2.9 6.0----30.00-- 82.2----
2026-09-01 10:30 am W 5.1 8.0----30.00- 88.7 82.2----
2026-09-01 10:24 am W 2.9 6.0----30.00- 89.1 82.2----
2026-09-01 10:18 amWSW 2.9 6.0----30.00-- 82.2----
2026-09-01 10:12 am SW 2.9 7.0----30.00-- 82.2----
2026-09-01 10:06 amWSW 2.9 6.0----30.00-- 82.2----
2026-09-01 10:00 am SW 2.9 7.0----30.00-0.01 88.7 82.2----
2026-09-01 09:54 am SW 4.1 6.0----30.00- 87.8 82.2----
2026-09-01 09:48 am SW 1.9 6.0----30.00- 87.8 82.2----
2026-09-01 09:42 am W 2.9 7.0----30.01- 88.2 82.0----
2026-09-01 09:36 am SW 1.9 5.1----30.00- 88.5 82.0----
2026-09-01 09:30 amWSW 1.9 7.0----30.01- 88.0 82.0----
2026-09-01 09:24 am W 2.9 6.0----30.01- 87.4 82.0----
2026-09-01 09:18 am SW 1.9 5.1----30.01-- 82.0----
2026-09-01 09:12 am W 4.1 8.0----30.01-- 82.0----
2026-09-01 09:06 am SW 1.9 4.1----30.01-- 82.0----
2026-09-01 09:00 am W 1.9 6.0----30.02+0.02 86.0 82.0----
2026-09-01 08:54 am W 2.9 5.1----30.02- 85.3 82.0----
2026-09-01 08:48 am SW 1.9 4.1----30.02-- 82.0----
2026-09-01 08:42 am W 1.9 5.1----30.02-- 82.0----
2026-09-01 08:36 am W 1.9 5.1----30.02-- 82.0----
2026-09-01 08:30 am W 4.1 6.0----30.02- 83.8 82.0----
2026-09-01 08:24 am W 1.9 4.1----30.02- 83.8 82.0----
2026-09-01 08:18 amWSW 2.9 4.1----30.01-- 82.0----
2026-09-01 08:12 amWSW 1.9 4.1----30.01-- 82.0----
2026-09-01 08:06 amWSW 1.0 4.1----30.01-- 81.9----
2026-09-01 08:00 am- 0.0 1.9----30.01+0.00 82.4 81.9----
2026-09-01 07:54 amWSW 1.9 4.1----30.01- 81.5 81.9----
2026-09-01 07:48 am W 1.0 2.9----30.01- 81.0 81.9----
2026-09-01 07:42 am- 0.0 1.9----30.01- 80.2 81.9----
2026-09-01 07:36 amWSW 1.9 4.1----30.01- 80.2 82.0----
2026-09-01 07:30 amWSW 1.9 4.1----30.01- 80.2 82.0----
2026-09-01 07:24 am W 1.9 4.1----30.01- 80.1 82.0----
2026-09-01 07:18 am W 1.9 4.1----30.01-- 82.0----
2026-09-01 07:12 am- 0.0 1.9----30.01-- 82.0----
2026-09-01 07:06 am- 0.0 1.9----30.01-- 82.0----
2026-09-01 07:00 am- 0.0 1.9----30.01+0.01 78.8 82.0----
2026-09-01 06:54 amSSW 1.0 1.9----30.01- 78.4 82.0----
2026-09-01 06:48 am W 1.0 1.0----30.01- 78.1 82.0----
2026-09-01 06:42 am W 1.0 2.9----30.01- 78.1 82.0----
2026-09-01 06:36 am W 1.9 2.9----30.01- 78.3 82.0----
2026-09-01 06:30 am W 1.0 2.9----30.01- 78.4 82.0----
2026-09-01 06:24 am W 1.0 1.9----30.00- 78.3 82.0----
2026-09-01 06:18 am- 0.0 1.9----30.00-- 82.0----
2026-09-01 06:12 am- 0.0 1.9----30.00-- 82.0----
2026-09-01 06:06 am W 1.9 2.9----30.00-- 82.0----
2026-09-01 06:00 am W 1.0 2.9----30.00- 78.8 82.0----
2026-09-01 05:54 am- 0.0 1.9----29.99- 78.8 82.0----
2026-09-01 05:48 am- 0.0 1.9----29.99- 78.6 81.9----
2026-09-01 05:42 am- 0.0 2.9----30.00- 78.6 81.3----
2026-09-01 05:36 am W 1.0 1.9----30.01- 78.6 81.3----
2026-09-01 05:30 am W 1.0 1.9----30.01- 78.8 81.5----
2026-09-01 05:24 am- 0.0 1.0----30.01- 78.8 81.5----
2026-09-01 05:18 am- 0.0 1.9----30.01-- 81.5----
2026-09-01 05:12 am- 0.0 1.0----30.01-- 81.5----
2026-09-01 05:06 am- 0.0 1.0----30.01-- 81.5----
2026-09-01 05:00 amWSW 1.0 2.9----30.01-0.02 79.0 81.9----
2026-09-01 04:54 am- 0.0 1.0----30.01- 79.0 82.2----
2026-09-01 04:48 am- 0.0 1.9----30.01-- 82.4----
2026-09-01 04:42 amSSW 1.0 2.9----30.01-- 82.4----
2026-09-01 04:36 am- 0.0 1.0----30.01-- 82.4----
2026-09-01 04:30 amSSW 1.0 2.9----30.01- 79.2 82.4----
2026-09-01 04:24 am- 0.0 1.0----30.01- 79.2 82.4----
2026-09-01 04:18 am- 0.0 1.9----30.01-- 82.4----
2026-09-01 04:12 am- 0.0 2.9----30.00-- 82.4----
2026-09-01 04:06 am SW 1.9 4.1----30.00-- 82.4----
2026-09-01 04:00 am SW 1.9 4.1----30.00-0.04 79.3 82.4----
2026-09-01 03:54 am SW 1.9 4.1----30.01- 79.3 82.4----
2026-09-01 03:48 am SW 1.0 2.9----30.01- 79.3 82.4----
2026-09-01 03:42 am SW 1.0 2.9----30.01- 79.3 82.4----
2026-09-01 03:36 amWSW 1.0 1.9----30.01- 79.5 82.4----
2026-09-01 03:30 amWSW 1.0 4.1----30.01- 79.7 82.4----
2026-09-01 03:24 amWSW 1.9 2.9----30.01- 79.7 82.2----
2026-09-01 03:18 amWSW 1.0 2.9----30.01- 79.7 82.2----
2026-09-01 03:12 am W 1.0 1.9----30.02- 79.9 82.0----
2026-09-01 03:06 am SW 1.9 5.1----30.02- 79.9 82.0----
2026-09-01 03:00 am SW 1.9 4.1------ 80.1 82.0----
2026-09-01 02:54 am- 0.0 2.9------ 80.1 82.0----
2026-09-01 02:48 am W 1.0 1.9----30.02- 80.1 82.2----
2026-09-01 02:42 am- 0.0 1.9----30.03- 80.2 82.2----
2026-09-01 02:36 amWNW 1.0 1.9----30.02- 80.2 82.2----
2026-09-01 02:30 am- 0.0 2.9----30.02-- 82.4----
2026-09-01 02:24 amSSE 1.9 5.1----30.02-- 82.4----
2026-09-01 02:18 amSSE 1.9 4.1----30.02-- 82.4----
2026-09-01 02:12 am S 1.9 2.9----30.02-- 82.4----
2026-09-01 02:06 amSSE 1.0 2.9----30.03-- 82.6----
2026-09-01 02:00 amSSE 1.9 4.1----30.03-0.02 80.6 82.6----
2026-09-01 01:54 am- 0.0 2.9----30.03- 80.6 82.6----
2026-09-01 01:48 am- 0.0 2.9----30.03- 80.4 82.6----
2026-09-01 01:42 am- 0.0 2.9----30.03- 80.6 82.6----
2026-09-01 01:36 amSSW 1.9 2.9----30.03- 80.6 82.6----
2026-09-01 01:30 amSSE 1.9 2.9----30.03- 80.6 82.6----
2026-09-01 01:24 am S 1.0 2.9----30.03- 80.8 82.6----
2026-09-01 01:18 am- 0.0 1.0----30.04-- 82.6----
2026-09-01 01:12 am S 1.0 2.9----30.04-- 82.6----
2026-09-01 01:06 am- 0.0 1.9----30.04-- 82.6----
2026-09-01 01:00 am S 1.9 4.1----30.04+0.00 80.8 82.6----
2026-09-01 12:54 am- 0.0 2.9----30.05- 80.6 82.6----
2026-09-01 12:48 amSSE 1.9 2.9----30.05- 80.6 82.6----
2026-09-01 12:42 am SE 1.9 1.9----30.05- 80.8 82.6----
2026-09-01 12:36 am S 1.0 1.9----30.05- 80.8 82.6----
2026-09-01 12:30 am- 0.0 1.0----30.05- 80.8 82.6----
2026-09-01 12:24 am- 0.0 1.0----30.05- 80.8 82.6----
2026-09-01 12:18 am- 0.0 1.0----30.05-- 82.6----
2026-09-01 12:12 am- 0.0 1.9----30.05-- 82.6----
2026-09-01 12:06 am- 0.0 1.9----30.05-- 82.8----
2026-09-01 12:00 am SW 1.0 2.9----30.05+0.00 81.0 82.8----
2026-08-31 11:54 pm SW 1.0 2.9----30.05- 81.0 82.8----
2026-08-31 11:48 pm- 0.0 1.0----30.05-- 82.8----
2026-08-31 11:42 pmSSW 1.9 2.9----30.05-- 82.8----
2026-08-31 11:36 pm S 1.9 2.9----30.05-- 82.8----
2026-08-31 11:30 pm W 1.0 1.9----30.05- 81.1 82.8----
2026-08-31 11:24 pm- 0.0 1.0----30.05- 81.3 82.8----
2026-08-31 11:18 pm- 0.0 2.9------- 82.8----
2026-08-31 11:12 pm W 1.9 4.1------- 82.8----
2026-08-31 11:06 pmWSW 1.0 2.9------- 82.8----
2026-08-31 11:00 pm W 1.0 2.9----30.05+0.01 81.7 82.8----
2026-08-31 10:54 pm S 1.9 2.9----30.05- 81.9 82.8----
2026-08-31 10:48 pm S 1.9 5.1----30.04- 81.9 82.8----
2026-08-31 10:42 pmSSE 2.9 6.0----30.04- 81.9 82.8----
2026-08-31 10:36 pmSSE 1.9 2.9----30.04- 81.9 82.8----
2026-08-31 10:30 pmSSE 1.9 5.1----30.04- 81.9 82.8----
2026-08-31 10:24 pmSSE 2.9 7.0----30.05- 81.9 82.6----
2026-08-31 10:18 pm S 2.9 6.0----30.05-- 82.6----
2026-08-31 10:12 pmSSE 4.1 8.0----30.05-- 82.6----
2026-08-31 10:06 pmSSE 2.9 7.0----30.05-- 82.6----
2026-08-31 10:00 pmSSE 2.9 7.0----30.05+0.00 81.7 82.6----
2026-08-31 09:54 pm SE 6.0 8.9----30.04- 81.5 82.6----
2026-08-31 09:48 pm SE 6.0 8.0----30.04- 81.7 82.4----
2026-08-31 09:42 pmSSE 5.1 8.0----30.04- 81.9 82.4----
2026-08-31 09:36 pm S 4.1 8.0----30.05- 82.0 82.6----
2026-08-31 09:30 pmSSE 4.1 6.0----30.05- 82.0 82.6----
2026-08-31 09:24 pmSSE 2.9 7.0----30.05- 82.2 82.6----
2026-08-31 09:18 pmSSE 2.9 7.0----30.05-- 82.6----
2026-08-31 09:12 pm SE 4.1 8.0----30.05-- 82.6----
2026-08-31 09:06 pmESE 5.1 8.0----30.05-- 82.6----
2026-08-31 09:00 pm E 6.0 8.0----30.05-0.01 82.6 82.4----
2026-08-31 08:54 pm E 7.0 8.9----30.05- 82.6 82.6----
2026-08-31 08:48 pm E 8.0 8.9----30.04-- 82.6----
2026-08-31 08:42 pm E 4.1 5.1----30.04-- 82.6----
2026-08-31 08:36 pm- 0.0 1.0----30.04-- 82.6----
2026-08-31 08:30 pm NE 1.0 1.0----30.04- 82.8 82.6----
2026-08-31 08:24 pmENE 1.0 1.9----30.04- 82.8 82.6----
2026-08-31 08:18 pmENE 1.0 1.9----30.04-- 82.8----
2026-08-31 08:12 pm E 1.9 2.9----30.04-- 82.8----
2026-08-31 08:06 pm E 1.9 4.1----30.04-- 82.6----
2026-08-31 08:00 pm E 2.9 2.9----30.04-0.01 82.8 82.6----
2026-08-31 07:54 pm E 1.9 2.9----30.04- 82.8 82.4----
2026-08-31 07:48 pmENE 1.9 4.1----30.04-- 82.4----
2026-08-31 07:42 pmENE 2.9 4.1----30.04-- 82.2----
2026-08-31 07:36 pmENE 2.9 5.1----30.04-- 82.6----
2026-08-31 06:48 pmNNE 4.1 6.0----30.05- 82.9 82.2----
2026-08-31 06:42 pm N 4.1 5.1----30.06- 83.1 82.8----
2026-08-31 06:36 pm N 2.9 5.1----30.06- 83.5 82.6----
2026-08-31 06:30 pmNNE 2.9 4.1----30.06- 83.7 82.6----
2026-08-31 06:24 pmNNE 2.9 4.1----30.06- 83.8 82.4----
2026-08-31 06:18 pmNNE 2.9 5.1----30.06- 83.8 82.2----
2026-08-31 06:12 pm NE 2.9 5.1----30.06- 83.8 82.6----
2026-08-31 06:06 pmENE 5.1 6.0----30.06- 83.8 82.0----
2026-08-31 06:00 pmENE 5.1 6.0----30.06-0.01 83.8 82.2----
2026-08-31 05:54 pmENE 6.0 7.0----30.06- 84.0 82.0----
2026-08-31 05:48 pmENE 5.1 8.0----30.06- 84.0 82.9----
2026-08-31 05:42 pmENE 5.1 6.0----30.06- 84.4 82.6----
2026-08-31 05:36 pm NE 2.9 5.1----30.06- 84.6 82.0----
2026-08-31 05:30 pm NE 2.9 4.1----30.06- 84.6 81.9----
2026-08-31 05:24 pm NE 2.9 6.0----30.06- 84.6 81.9----
2026-08-31 05:18 pmNNE 4.1 6.0----30.06-- 82.0----
2026-08-31 05:12 pmNNE 4.1 6.0----30.06-- 81.5----
2026-08-31 05:06 pm NW 1.9 2.9----30.06-- 81.1----
2026-08-31 05:00 pm N 2.9 5.1----30.05-0.03 84.9 81.1----
2026-08-31 04:54 pmENE 4.1 6.0----30.05- 84.9 81.1----
2026-08-31 04:48 pm E 4.1 5.1----30.05- 84.4 81.7----
2026-08-31 04:42 pm E 4.1 5.1----30.05- 84.6 82.0----
2026-08-31 04:36 pm E 2.9 5.1----30.05- 84.4 82.6----
2026-08-31 04:30 pm E 4.1 5.1----30.06- 84.0 83.1----
2026-08-31 04:24 pm E 4.1 5.1----30.06- 84.0 83.3----
2026-08-31 04:18 pm E 5.1 5.1----30.06-- 82.8----
2026-08-31 04:12 pm E 5.1 6.0----30.06-- 83.1----
2026-08-31 04:06 pm E 4.1 6.0----30.06-- 83.1----
2026-08-31 04:00 pm E 4.1 5.1----30.06-0.04 84.0 83.1----
2026-08-31 03:54 pm E 4.1 5.1----30.06- 84.2 82.9----
2026-08-31 03:48 pm E 1.9 2.9----30.06- 84.2 82.9----
2026-08-31 03:42 pmNNE 2.9 4.1----30.06- 84.6 82.9----
2026-08-31 03:36 pmNNE 4.1 6.0----30.06- 84.0 82.9----
2026-08-31 03:30 pm NE 4.1 6.0----30.07- 83.8 82.6----
2026-08-31 03:24 pmENE 4.1 5.1----30.07- 84.0 82.4----
2026-08-31 03:18 pm E 2.9 4.1----30.07-- 82.2----
2026-08-31 03:12 pm E 4.1 5.1----30.07-- 82.0----
2026-08-31 03:06 pm E 4.1 5.1----30.08-- 81.9----
2026-08-31 03:00 pm E 5.1 5.1----30.07-0.03 83.5 82.2----
2026-08-31 02:54 pm E 4.1 5.1----30.08- 83.3 82.4----
2026-08-31 02:48 pm E 5.1 6.0----30.08- 82.9 82.6----
2026-08-31 02:42 pm E 5.1 6.0----30.08- 83.1 82.6----
2026-08-31 02:36 pm E 6.0 6.0----30.08- 83.1 82.6----
2026-08-31 02:30 pm E 5.1 7.0----30.08- 83.1 82.8----
2026-08-31 02:24 pm E 6.0 7.0----30.08- 82.9 82.8----
2026-08-31 02:18 pm E 6.0 6.0----30.08-- 82.8----
2026-08-31 02:12 pm E 6.0 6.0----30.08-- 82.8----
2026-08-31 02:06 pm E 5.1 7.0----30.08-- 82.8----
2026-08-31 02:00 pm E 6.0 7.0----30.08-0.02 82.6 82.8----
2026-08-31 01:54 pm E 7.0 7.0----30.08- 82.8 82.6----